Time;durP1;ratioP1;P1;durP2;ratioP2;P2;SDS_P1;SDS_P2;PMS_P1;PMS_P2;Temp;Humidity;BMP_temperature;BMP_pressure;BME280_temperature;BME280_humidity;BME280_pressure;Samples;Min_cycle;Max_cycle;Signal;HPM_P1;HPM_P2
2020/12/17 00:02:17;;;;;;;23.43;21.30;;;4.40;99.90;;;;;;5096136;28;20680;-93
2020/12/17 00:04:44;;;;;;;23.03;20.93;;;4.40;99.90;;;;;;5100415;28;20635;-94
2020/12/17 00:07:25;;;;;;;22.10;20.10;;;4.60;99.90;;;;;;5100320;28;20625;-95
2020/12/17 00:10:00;;;;;;;22.90;20.90;;;4.60;99.90;;;;;;5101849;28;20652;-94
2020/12/17 00:12:50;;;;;;;21.07;19.27;;;4.60;99.90;;;;;;5109554;28;20616;-95
2020/12/17 00:15:19;;;;;;;23.57;21.30;;;4.70;99.90;;;;;;5099888;28;20660;-94
2020/12/17 00:17:49;;;;;;;23.37;21.13;;;4.70;99.90;;;;;;5101500;28;20635;-95
2020/12/17 00:20:18;;;;;;;21.93;20.03;;;4.70;99.90;;;;;;5094826;28;20644;-94
2020/12/17 00:22:46;;;;;;;21.83;19.83;;;4.70;99.90;;;;;;5093018;28;21055;-94
2020/12/17 00:25:17;;;;;;;21.00;19.23;;;4.70;99.90;;;;;;5091254;28;20624;-93
2020/12/17 00:27:47;;;;;;;21.67;19.73;;;4.60;99.90;;;;;;5094497;28;20636;-93
2020/12/17 00:30:14;;;;;;;19.60;17.90;;;4.50;99.90;;;;;;5112298;28;20721;-92
2020/12/17 00:32:42;;;;;;;19.27;17.53;;;4.30;99.90;;;;;;5087599;28;20668;-91
2020/12/17 00:35:11;;;;;;;23.07;21.03;;;4.30;99.90;;;;;;5098856;28;20711;-93
2020/12/17 00:37:41;;;;;;;22.70;20.50;;;4.30;99.90;;;;;;5091135;28;21178;-93
2020/12/17 00:40:10;;;;;;;21.17;19.37;;;4.40;99.90;;;;;;5096479;28;20776;-93
2020/12/17 00:42:39;;;;;;;22.00;20.00;;;4.40;99.90;;;;;;5104763;28;20722;-93
2020/12/17 00:45:07;;;;;;;21.53;19.43;;;4.40;99.90;;;;;;5097968;28;20622;-94
2020/12/17 00:47:39;;;;;;;20.37;18.57;;;4.40;99.90;;;;;;5104766;28;20635;-94
2020/12/17 00:50:07;;;;;;;20.67;18.77;;;4.50;99.90;;;;;;5098308;28;20700;-93
2020/12/17 00:52:43;;;;;;;20.50;18.73;;;4.60;99.90;;;;;;5109127;28;20635;-95
2020/12/17 00:55:10;;;;;;;20.70;18.93;;;4.50;99.90;;;;;;5098031;28;20714;-92
2020/12/17 00:57:40;;;;;;;20.30;18.57;;;4.60;99.90;;;;;;5112248;28;20632;-95
2020/12/17 01:00:09;;;;;;;20.20;18.50;;;4.60;99.90;;;;;;5098624;28;21102;-94
2020/12/17 01:02:36;;;;;;;20.30;18.50;;;4.60;99.90;;;;;;5103876;28;20982;-93
2020/12/17 01:05:05;;;;;;;22.60;20.70;;;4.50;99.90;;;;;;5101578;28;20633;-94
2020/12/17 01:10:13;;;;;;;20.43;18.63;;;4.50;99.90;;;;;;5088361;28;20659;-94
2020/12/17 01:12:41;;;;;;;20.97;18.90;;;4.40;99.90;;;;;;5104661;28;20631;-95
2020/12/17 01:15:08;;;;;;;18.40;16.83;;;4.40;99.90;;;;;;5088680;28;20631;-94
2020/12/17 01:17:39;;;;;;;21.63;19.53;;;4.40;99.90;;;;;;5099334;28;20681;-94
2020/12/17 01:20:07;;;;;;;19.63;18.07;;;4.30;99.90;;;;;;5091163;28;20736;-94
2020/12/17 01:22:33;;;;;;;19.57;17.93;;;4.10;99.90;;;;;;5087300;28;20673;-93
2020/12/17 01:25:00;;;;;;;19.80;18.10;;;4.00;99.90;;;;;;5098029;28;20727;-95
2020/12/17 01:27:34;;;;;;;20.83;18.97;;;3.90;99.90;;;;;;5105023;28;21205;-94
2020/12/17 01:30:01;;;;;;;21.07;19.27;;;4.00;99.90;;;;;;5100788;28;20721;-94
2020/12/17 01:32:28;;;;;;;21.40;19.50;;;4.00;99.90;;;;;;5100126;27;20629;-94
2020/12/17 01:34:54;;;;;;;21.03;19.30;;;4.00;99.90;;;;;;5102157;27;20633;-94
2020/12/17 01:37:21;;;;;;;21.27;19.47;;;4.00;99.90;;;;;;5098157;28;20695;-93
2020/12/17 01:39:49;;;;;;;23.07;20.97;;;3.90;99.90;;;;;;5095532;28;21000;-93
2020/12/17 01:42:21;;;;;;;20.67;19.07;;;4.00;99.90;;;;;;5093815;28;20682;-94
2020/12/17 01:44:49;;;;;;;21.13;19.23;;;4.00;99.90;;;;;;5090350;28;20630;-93
2020/12/17 01:47:15;;;;;;;22.33;20.43;;;3.80;99.90;;;;;;5096987;28;20662;-93
2020/12/17 01:49:42;;;;;;;21.37;19.47;;;3.70;99.90;;;;;;5102114;28;20685;-94
2020/12/17 01:52:09;;;;;;;22.60;20.53;;;3.60;99.90;;;;;;5094898;28;20702;-93
2020/12/17 01:54:35;;;;;;;23.83;21.83;;;3.50;99.90;;;;;;5093608;28;20610;-93
2020/12/17 01:57:03;;;;;;;25.53;23.20;;;3.50;99.90;;;;;;5104775;28;20635;-93
2020/12/17 01:59:40;;;;;;;23.13;20.47;;;3.40;99.90;;;;;;5096915;28;20669;-93
2020/12/17 02:02:10;;;;;;;26.27;24.10;;;3.30;99.90;;;;;;5091743;28;21875;-94
2020/12/17 02:04:41;;;;;;;24.47;22.40;;;3.30;99.90;;;;;;5105307;28;20954;-94
2020/12/17 02:07:12;;;;;;;21.73;19.83;;;3.40;99.90;;;;;;5101853;28;20621;-93
2020/12/17 02:09:39;;;;;;;25.23;22.97;;;3.50;99.90;;;;;;5099360;28;21080;-92
2020/12/17 02:12:08;;;;;;;19.47;17.77;;;3.50;99.90;;;;;;5101404;28;20612;-93
2020/12/17 02:14:36;;;;;;;22.17;20.20;;;3.30;99.90;;;;;;5112923;28;20640;-92
2020/12/17 02:17:04;;;;;;;23.57;21.67;;;3.30;99.90;;;;;;5100954;28;20626;-93
2020/12/17 02:19:33;;;;;;;26.20;23.53;;;3.20;99.90;;;;;;5095193;28;20645;-92
2020/12/17 02:22:00;;;;;;;35.20;32.30;;;3.20;99.90;;;;;;5095268;28;20665;-93
2020/12/17 02:24:27;;;;;;;35.63;32.53;;;3.30;99.90;;;;;;5100838;28;20639;-92
2020/12/17 02:26:55;;;;;;;25.43;23.10;;;3.30;99.90;;;;;;5096865;28;20636;-92
2020/12/17 02:29:29;;;;;;;25.77;23.67;;;3.10;99.90;;;;;;5092656;28;20737;-91
2020/12/17 02:32:09;;;;;;;37.57;34.57;;;3.00;99.90;;;;;;5107348;28;20625;-94
2020/12/17 02:34:49;;;;;;;31.67;28.93;;;3.10;99.90;;;;;;5109884;28;20634;-95
2020/12/17 02:37:17;;;;;;;28.97;26.37;;;3.10;99.90;;;;;;5102352;28;20632;-94
2020/12/17 02:39:50;;;;;;;32.73;29.90;;;2.90;99.90;;;;;;5091267;28;20736;-92
2020/12/17 02:42:24;;;;;;;40.37;36.97;;;2.90;99.90;;;;;;5100356;28;20730;-95
2020/12/17 02:44:57;;;;;;;41.30;37.80;;;2.80;99.90;;;;;;5117753;28;20651;-96
2020/12/17 02:50:26;;;;;;;38.10;34.77;;;3.00;99.90;;;;;;5108834;28;20711;-95
2020/12/17 02:53:24;;;;;;;35.33;32.33;;;2.80;99.90;;;;;;5107611;28;20621;-95
2020/12/17 02:55:54;;;;;;;38.73;35.27;;;2.80;99.90;;;;;;5105796;28;20633;-95
2020/12/17 03:05:09;;;;;;;39.77;36.37;;;2.90;99.90;;;;;;5110275;28;20604;-95
2020/12/17 03:07:36;;;;;;;36.20;33.30;;;2.80;99.90;;;;;;5086477;28;20627;-93
2020/12/17 03:10:12;;;;;;;36.23;33.27;;;2.80;99.90;;;;;;5099882;28;20664;-93
2020/12/17 03:12:43;;;;;;;41.80;38.23;;;2.70;99.90;;;;;;5100912;28;20640;-94
2020/12/17 03:15:12;;;;;;;39.00;35.47;;;2.70;99.90;;;;;;5091319;28;21190;-93
2020/12/17 03:17:42;;;;;;;38.30;34.97;;;2.70;99.90;;;;;;5093969;28;20621;-93
2020/12/17 03:20:10;;;;;;;37.93;34.47;;;2.70;99.90;;;;;;5096721;28;21002;-93
2020/12/17 03:22:39;;;;;;;40.33;36.53;;;2.70;99.90;;;;;;5093537;28;20661;-93
2020/12/17 03:25:09;;;;;;;39.43;36.07;;;2.70;99.90;;;;;;5095807;28;20632;-93
2020/12/17 03:27:36;;;;;;;37.87;34.47;;;2.70;99.90;;;;;;5093223;28;20634;-93
2020/12/17 03:30:04;;;;;;;37.80;34.40;;;2.80;99.90;;;;;;5092481;28;20657;-93
2020/12/17 03:32:31;;;;;;;36.60;33.33;;;2.70;99.90;;;;;;5091595;28;20981;-92
2020/12/17 03:34:59;;;;;;;34.77;31.70;;;2.70;99.90;;;;;;5088528;28;20609;-90
2020/12/17 03:37:26;;;;;;;33.77;30.43;;;2.60;99.90;;;;;;5092837;28;20645;-89
2020/12/17 03:39:53;;;;;;;32.57;29.60;;;2.60;99.90;;;;;;5093314;28;20663;-90
2020/12/17 03:42:20;;;;;;;30.77;27.97;;;2.60;99.90;;;;;;5093138;28;21285;-89
2020/12/17 03:44:49;;;;;;;32.73;29.83;;;2.60;99.90;;;;;;5096341;28;20652;-90
2020/12/17 03:47:22;;;;;;;29.00;26.47;;;2.70;99.90;;;;;;5099331;28;20661;-90
2020/12/17 03:49:49;;;;;;;28.97;26.27;;;2.80;99.90;;;;;;5085359;28;20673;-90
2020/12/17 03:52:16;;;;;;;26.20;23.90;;;2.70;99.90;;;;;;5091171;28;20628;-91
2020/12/17 03:54:43;;;;;;;27.10;24.80;;;2.80;99.90;;;;;;5092355;28;20608;-90
2020/12/17 03:57:09;;;;;;;25.73;23.50;;;2.70;99.90;;;;;;5088340;28;20621;-91
2020/12/17 03:59:36;;;;;;;26.23;23.83;;;2.70;99.90;;;;;;5089856;28;20709;-90
2020/12/17 04:02:02;;;;;;;24.97;22.93;;;2.60;99.90;;;;;;5085361;28;20657;-90
2020/12/17 04:04:29;;;;;;;25.83;23.63;;;2.60;99.90;;;;;;5093228;28;20627;-91
2020/12/17 04:06:56;;;;;;;25.27;22.93;;;2.70;99.90;;;;;;5083983;28;20633;-93
2020/12/17 04:09:22;;;;;;;24.20;22.20;;;2.60;99.90;;;;;;5097740;28;20705;-92
2020/12/17 04:11:50;;;;;;;23.37;21.27;;;2.40;99.90;;;;;;5100039;28;20669;-92
2020/12/17 04:14:16;;;;;;;21.97;19.90;;;2.40;99.90;;;;;;5089955;28;20609;-92
2020/12/17 04:16:43;;;;;;;22.60;20.50;;;2.40;99.90;;;;;;5093936;28;20618;-91
2020/12/17 04:19:10;;;;;;;22.80;20.87;;;2.50;99.90;;;;;;5090008;28;20798;-91
2020/12/17 04:21:40;;;;;;;22.40;20.10;;;2.50;99.90;;;;;;5092414;28;21513;-92
2020/12/17 04:24:08;;;;;;;22.50;20.47;;;2.40;99.90;;;;;;5087844;28;20609;-93
2020/12/17 04:26:36;;;;;;;22.83;20.73;;;2.50;99.90;;;;;;5095253;28;20774;-94
2020/12/17 04:29:04;;;;;;;21.97;19.80;;;2.60;99.90;;;;;;5089718;28;20828;-94
2020/12/17 04:31:32;;;;;;;23.50;21.30;;;2.70;99.90;;;;;;5103969;28;20647;-94
2020/12/17 04:33:59;;;;;;;23.87;21.53;;;2.70;99.90;;;;;;5107879;28;20703;-94
2020/12/17 04:36:28;;;;;;;24.33;22.00;;;2.60;99.90;;;;;;5107531;28;21143;-94
2020/12/17 04:38:56;;;;;;;25.00;22.73;;;2.50;99.90;;;;;;5099171;28;20623;-94
2020/12/17 04:41:26;;;;;;;23.10;20.80;;;2.40;99.90;;;;;;5106277;28;20719;-94
2020/12/17 04:44:00;;;;;;;23.77;20.93;;;2.40;99.90;;;;;;5113206;28;20705;-94
2020/12/17 04:46:30;;;;;;;23.47;21.27;;;2.40;99.90;;;;;;5117409;28;20672;-94
2020/12/17 04:48:59;;;;;;;21.70;19.83;;;2.40;99.90;;;;;;5106252;28;20644;-94
2020/12/17 04:51:26;;;;;;;20.77;18.80;;;2.40;99.90;;;;;;5105907;28;20668;-94
2020/12/17 04:54:04;;;;;;;21.07;19.17;;;2.40;99.90;;;;;;5105681;28;20727;-94
2020/12/17 04:56:38;;;;;;;21.87;19.67;;;2.30;99.90;;;;;;5099361;28;20631;-95
2020/12/17 04:59:08;;;;;;;22.77;20.40;;;2.30;99.90;;;;;;5102014;28;20629;-93
2020/12/17 05:01:43;;;;;;;22.77;20.70;;;2.30;99.90;;;;;;5099242;28;20653;-93
2020/12/17 05:04:14;;;;;;;21.13;19.23;;;2.30;99.90;;;;;;5107006;28;20628;-94
2020/12/17 05:06:47;;;;;;;19.03;17.33;;;2.40;99.90;;;;;;5110458;28;20631;-94
2020/12/17 05:09:18;;;;;;;21.97;20.07;;;2.50;99.90;;;;;;5102335;28;20677;-95
2020/12/17 05:11:47;;;;;;;20.23;18.43;;;2.50;99.90;;;;;;5099310;28;21250;-94
2020/12/17 05:14:13;;;;;;;19.63;17.93;;;2.50;99.90;;;;;;5099392;28;20716;-93
2020/12/17 05:16:43;;;;;;;20.60;18.80;;;2.50;99.90;;;;;;5103378;28;20616;-94
2020/12/17 05:19:10;;;;;;;21.10;19.20;;;2.50;99.90;;;;;;5102980;28;20637;-94
2020/12/17 05:21:37;;;;;;;19.90;18.13;;;2.50;99.90;;;;;;5096801;28;21265;-94
2020/12/17 05:24:04;;;;;;;22.47;20.33;;;2.40;99.90;;;;;;5106147;28;20636;-95
2020/12/17 05:26:32;;;;;;;20.47;18.57;;;2.50;99.90;;;;;;5087842;28;20633;-94
2020/12/17 05:29:00;;;;;;;20.97;19.00;;;2.50;99.90;;;;;;5097470;28;20632;-94
2020/12/17 05:31:26;;;;;;;20.97;18.93;;;2.50;99.90;;;;;;5112884;28;20663;-93
2020/12/17 05:33:53;;;;;;;20.00;18.40;;;2.60;99.90;;;;;;5097745;28;20706;-92
2020/12/17 05:36:25;;;;;;;21.10;19.27;;;2.60;99.90;;;;;;5114178;28;20666;-93
2020/12/17 05:38:53;;;;;;;20.50;18.70;;;2.60;99.90;;;;;;5105941;28;20625;-93
2020/12/17 05:41:20;;;;;;;21.87;19.97;;;2.60;99.90;;;;;;5089857;28;20653;-92
2020/12/17 05:43:48;;;;;;;24.40;22.10;;;2.60;99.90;;;;;;5086717;28;20632;-93
2020/12/17 05:46:35;;;;;;;24.83;22.40;;;2.50;99.90;;;;;;5093960;28;20735;-92
2020/12/17 05:49:09;;;;;;;22.50;20.53;;;2.50;99.90;;;;;;5089273;28;20659;-92
2020/12/17 05:51:38;;;;;;;22.10;20.00;;;2.40;99.90;;;;;;5091231;28;20922;-92
2020/12/17 05:54:08;;;;;;;21.90;20.00;;;2.30;99.90;;;;;;5093116;28;20661;-92
2020/12/17 05:56:35;;;;;;;26.00;23.33;;;2.30;99.90;;;;;;5092476;28;20624;-91
2020/12/17 05:59:05;;;;;;;24.83;22.57;;;2.20;99.90;;;;;;5085959;28;20683;-92
2020/12/17 06:01:39;;;;;;;23.50;21.40;;;2.20;99.90;;;;;;5097616;28;20652;-93
2020/12/17 06:04:15;;;;;;;24.07;21.77;;;2.10;99.90;;;;;;5089852;28;21036;-91
2020/12/17 06:06:46;;;;;;;24.07;21.57;;;2.20;99.90;;;;;;5089036;28;20630;-92
2020/12/17 06:09:21;;;;;;;23.07;20.97;;;2.20;99.90;;;;;;5094165;28;20639;-92
2020/12/17 06:11:51;;;;;;;21.60;19.70;;;2.20;99.90;;;;;;5083627;28;20668;-91
2020/12/17 06:14:21;;;;;;;22.00;20.00;;;2.10;99.90;;;;;;5086770;28;20650;-94
2020/12/17 06:16:53;;;;;;;21.60;19.57;;;2.20;99.90;;;;;;5084211;28;20625;-94
2020/12/17 06:19:23;;;;;;;20.30;18.50;;;2.20;99.90;;;;;;5099216;28;20635;-92
2020/12/17 06:21:50;;;;;;;22.10;20.00;;;2.30;99.90;;;;;;5088679;28;20741;-93
2020/12/17 06:24:19;;;;;;;22.83;20.70;;;2.40;99.90;;;;;;5087922;28;20660;-92
2020/12/17 06:26:51;;;;;;;22.07;20.07;;;2.40;99.90;;;;;;5090115;28;21045;-93
2020/12/17 06:29:21;;;;;;;21.73;19.80;;;2.50;99.90;;;;;;5094317;28;20624;-92
2020/12/17 06:31:53;;;;;;;21.00;19.17;;;2.50;99.90;;;;;;5093956;28;20880;-93
2020/12/17 06:34:20;;;;;;;23.10;20.70;;;2.60;99.90;;;;;;5093332;28;20638;-91
2020/12/17 06:36:59;;;;;;;21.60;19.60;;;2.60;99.90;;;;;;5087307;28;21001;-93
2020/12/17 06:39:26;;;;;;;20.73;18.80;;;2.50;99.90;;;;;;5087122;28;20710;-93
2020/12/17 06:41:53;;;;;;;23.23;21.13;;;2.40;99.90;;;;;;5098910;28;21222;-93
2020/12/17 06:44:28;;;;;;;20.93;19.13;;;2.40;99.90;;;;;;5101922;28;20645;-93
2020/12/17 06:46:55;;;;;;;21.33;19.40;;;2.40;99.90;;;;;;5094481;28;20621;-91
2020/12/17 06:49:25;;;;;;;22.13;20.10;;;2.40;99.90;;;;;;5095944;28;20637;-92
2020/12/17 06:52:03;;;;;;;21.00;19.10;;;2.50;99.90;;;;;;5088705;28;20660;-92
2020/12/17 06:54:40;;;;;;;20.10;18.30;;;2.50;99.90;;;;;;5089726;28;21167;-92
2020/12/17 06:57:09;;;;;;;20.50;18.70;;;2.50;99.90;;;;;;5087798;28;20636;-93
2020/12/17 06:59:40;;;;;;;20.23;18.47;;;2.30;99.90;;;;;;5085220;28;20652;-94
2020/12/17 07:02:08;;;;;;;20.20;18.40;;;2.40;99.90;;;;;;5089055;28;20781;-92
2020/12/17 07:04:36;;;;;;;21.80;19.67;;;2.40;99.90;;;;;;5091582;28;20621;-93
2020/12/17 07:07:15;;;;;;;19.80;17.60;;;2.30;99.90;;;;;;5096897;28;20655;-93
2020/12/17 07:09:43;;;;;;;19.17;17.17;;;2.30;99.90;;;;;;5094727;28;21185;-92
2020/12/17 07:12:12;;;;;;;18.93;17.20;;;2.30;99.90;;;;;;5095441;28;20679;-93
2020/12/17 07:14:41;;;;;;;19.40;17.57;;;2.30;99.90;;;;;;5093953;28;20655;-92
2020/12/17 07:17:10;;;;;;;19.30;17.50;;;2.20;99.90;;;;;;5095476;28;20624;-92
2020/12/17 07:19:44;;;;;;;20.20;18.50;;;2.20;99.90;;;;;;5100042;28;20679;-92
2020/12/17 07:22:14;;;;;;;21.90;19.90;;;2.30;99.90;;;;;;5095633;28;20774;-92
2020/12/17 07:24:48;;;;;;;20.90;19.00;;;2.30;99.90;;;;;;5087022;28;20616;-93
2020/12/17 07:27:16;;;;;;;20.37;18.40;;;2.40;99.90;;;;;;5098181;28;20628;-93
2020/12/17 07:29:50;;;;;;;20.83;18.93;;;2.50;99.90;;;;;;5087072;28;20621;-92
2020/12/17 07:32:34;;;;;;;19.07;17.47;;;2.50;99.90;;;;;;5096174;28;20648;-93
2020/12/17 07:35:19;;;;;;;20.37;18.43;;;2.70;99.90;;;;;;5101931;28;20624;-93
2020/12/17 07:37:47;;;;;;;19.73;17.73;;;2.60;99.90;;;;;;5100059;28;20682;-93
2020/12/17 07:40:35;;;;;;;20.30;18.43;;;2.70;99.90;;;;;;5095543;28;21067;-93
2020/12/17 07:43:13;;;;;;;19.50;17.80;;;2.90;99.90;;;;;;5084823;28;20649;-93
2020/12/17 07:45:59;;;;;;;20.30;18.27;;;3.00;99.90;;;;;;5093893;28;20687;-91
2020/12/17 07:48:44;;;;;;;20.07;17.90;;;3.10;99.90;;;;;;5094207;28;20648;-95
2020/12/17 07:51:35;;;;;;;19.70;17.90;;;3.20;99.90;;;;;;5106763;28;20675;-93
2020/12/17 07:54:06;;;;;;;18.00;16.30;;;3.20;99.90;;;;;;5104251;28;20645;-92
2020/12/17 07:56:33;;;;;;;18.77;16.93;;;3.30;99.90;;;;;;5110193;28;20635;-91
2020/12/17 07:59:06;;;;;;;18.30;16.60;;;3.40;99.90;;;;;;5118866;28;20668;-91
2020/12/17 08:01:34;;;;;;;18.67;16.97;;;3.40;99.90;;;;;;5108951;28;20752;-91
2020/12/17 08:04:00;;;;;;;19.57;17.73;;;3.60;99.90;;;;;;5103650;28;20641;-92
2020/12/17 08:06:33;;;;;;;17.70;16.10;;;3.60;99.90;;;;;;5105158;28;20615;-91
2020/12/17 08:09:05;;;;;;;17.77;16.17;;;3.70;99.90;;;;;;5101196;28;20650;-91
2020/12/17 08:11:31;;;;;;;17.87;16.17;;;3.90;99.90;;;;;;5100267;28;20684;-92
2020/12/17 08:14:03;;;;;;;18.03;16.40;;;3.90;99.90;;;;;;5101352;28;20693;-90
2020/12/17 08:16:32;;;;;;;17.23;15.63;;;4.00;99.90;;;;;;5106700;28;20615;-92
2020/12/17 08:19:00;;;;;;;16.80;15.20;;;4.10;99.90;;;;;;5096756;28;20644;-91
2020/12/17 08:21:28;;;;;;;16.70;15.10;;;4.20;99.90;;;;;;5096497;28;20756;-91
2020/12/17 08:23:58;;;;;;;18.13;15.57;;;4.20;99.90;;;;;;5096131;28;20658;-91
2020/12/17 08:26:26;;;;;;;17.57;15.37;;;4.20;99.90;;;;;;5089138;28;20626;-91
2020/12/17 08:28:53;;;;;;;15.30;13.93;;;4.30;99.90;;;;;;5090647;28;20656;-92
2020/12/17 08:31:21;;;;;;;16.67;15.17;;;4.40;99.90;;;;;;5087963;28;20777;-92
2020/12/17 08:33:48;;;;;;;16.60;14.70;;;4.40;99.90;;;;;;5102804;28;20638;-91
2020/12/17 08:36:20;;;;;;;17.23;15.73;;;4.40;99.90;;;;;;5097325;28;20601;-91
2020/12/17 08:39:00;;;;;;;17.90;16.23;;;4.50;99.90;;;;;;5086922;28;20637;-91
2020/12/17 08:41:29;;;;;;;19.63;17.83;;;4.60;99.90;;;;;;5098700;28;20661;-91
2020/12/17 08:44:02;;;;;;;16.40;14.83;;;4.70;99.90;;;;;;5093620;28;20652;-92
2020/12/17 08:46:33;;;;;;;15.67;14.27;;;4.70;99.90;;;;;;5086328;28;20677;-90
2020/12/17 08:49:01;;;;;;;15.37;13.97;;;4.90;99.90;;;;;;5089549;28;20636;-91
2020/12/17 08:51:30;;;;;;;15.10;13.50;;;5.00;99.90;;;;;;5094167;27;20756;-91
2020/12/17 08:53:57;;;;;;;15.10;13.60;;;5.00;99.90;;;;;;5103388;28;20625;-92
2020/12/17 08:56:24;;;;;;;14.97;13.77;;;5.00;99.90;;;;;;5095027;28;20631;-91
2020/12/17 08:58:53;;;;;;;16.03;14.53;;;5.00;99.90;;;;;;5116098;28;20642;-91
2020/12/17 09:01:24;;;;;;;15.80;14.17;;;5.10;99.90;;;;;;5115379;28;20652;-91
2020/12/17 09:03:51;;;;;;;12.13;10.83;;;5.20;99.90;;;;;;5093279;28;20655;-92
2020/12/17 09:06:27;;;;;;;12.60;11.50;;;5.10;99.90;;;;;;5096059;28;20651;-92
2020/12/17 09:08:54;;;;;;;12.60;11.40;;;5.30;99.90;;;;;;5095165;28;20736;-93
2020/12/17 09:11:33;;;;;;;9.40;8.60;;;5.60;99.90;;;;;;5094460;28;21059;-90
2020/12/17 09:14:02;;;;;;;9.97;9.07;;;5.60;99.90;;;;;;5094623;28;21166;-93
2020/12/17 09:16:29;;;;;;;10.67;9.77;;;5.80;99.90;;;;;;5096056;28;20738;-92
2020/12/17 09:18:56;;;;;;;11.43;10.50;;;5.80;99.90;;;;;;5098975;28;20631;-91
2020/12/17 09:21:23;;;;;;;8.80;8.10;;;6.00;99.90;;;;;;5094694;28;20654;-91
2020/12/17 09:24:09;;;;;;;8.20;7.60;;;5.80;99.90;;;;;;5100103;28;20689;-91
2020/12/17 09:26:35;;;;;;;8.87;8.13;;;5.90;99.90;;;;;;5090855;28;20622;-92
2020/12/17 09:29:04;;;;;;;8.27;7.30;;;6.00;99.90;;;;;;5093623;28;20643;-91
2020/12/17 09:31:35;;;;;;;8.47;7.87;;;6.10;99.90;;;;;;5092894;28;20656;-91
2020/12/17 09:34:12;;;;;;;9.17;8.27;;;6.10;99.90;;;;;;5093437;28;21044;-93
2020/12/17 09:36:43;;;;;;;7.90;7.23;;;6.10;99.90;;;;;;5101076;28;20579;-91
2020/12/17 09:39:13;;;;;;;8.40;7.77;;;6.10;99.90;;;;;;5092555;28;20655;-92
2020/12/17 09:41:51;;;;;;;8.00;7.40;;;6.20;99.90;;;;;;5104210;28;20705;-91
2020/12/17 09:44:27;;;;;;;7.50;6.80;;;6.30;99.90;;;;;;5095806;28;20689;-92
2020/12/17 09:46:55;;;;;;;7.97;7.27;;;6.30;99.90;;;;;;5092951;28;20627;-91
2020/12/17 09:49:35;;;;;;;8.17;7.47;;;6.30;99.90;;;;;;5100615;28;20665;-92
2020/12/17 09:52:11;;;;;;;8.50;7.40;;;6.40;99.90;;;;;;5096159;28;20639;-91
2020/12/17 09:54:43;;;;;;;7.03;6.43;;;6.50;99.90;;;;;;5105088;28;20609;-91
2020/12/17 09:57:12;;;;;;;7.60;6.70;;;6.50;99.90;;;;;;5107697;28;20608;-92
2020/12/17 09:59:40;;;;;;;8.33;7.63;;;6.90;99.90;;;;;;5104196;28;20632;-91
2020/12/17 10:02:08;;;;;;;7.47;6.80;;;7.30;99.90;;;;;;5093007;28;20681;-91
2020/12/17 10:04:35;;;;;;;7.90;7.20;;;7.70;99.90;;;;;;5103702;28;20625;-92
2020/12/17 10:07:07;;;;;;;6.53;6.03;;;8.10;99.90;;;;;;5090521;28;20633;-90
2020/12/17 10:09:33;;;;;;;9.17;6.57;;;8.30;99.90;;;;;;5118917;28;20637;-91
2020/12/17 10:12:00;;;;;;;6.50;5.87;;;8.60;99.90;;;;;;5099975;28;20695;-92
2020/12/17 10:14:30;;;;;;;6.47;5.87;;;8.70;99.90;;;;;;5105618;28;20650;-91
2020/12/17 10:16:59;;;;;;;7.33;6.80;;;9.10;99.90;;;;;;5097559;28;21189;-92
2020/12/17 10:19:27;;;;;;;5.77;5.27;;;9.70;99.90;;;;;;5102177;28;20630;-91
2020/12/17 10:21:53;;;;;;;5.23;4.80;;;9.80;99.90;;;;;;5098281;28;20666;-90
2020/12/17 10:24:19;;;;;;;6.57;6.00;;;10.00;99.90;;;;;;5097516;28;20648;-90
2020/12/17 10:26:47;;;;;;;5.13;4.70;;;10.10;99.90;;;;;;5093385;28;20637;-90
2020/12/17 10:29:14;;;;;;;6.20;5.23;;;9.90;99.90;;;;;;5096832;28;20629;-92
2020/12/17 10:31:40;;;;;;;4.87;4.37;;;9.80;99.90;;;;;;5093205;28;20705;-92
2020/12/17 10:34:07;;;;;;;7.43;5.20;;;10.30;99.90;;;;;;5095061;28;20631;-90
2020/12/17 10:36:38;;;;;;;5.17;4.60;;;10.50;99.90;;;;;;5095573;28;21190;-91
2020/12/17 10:39:12;;;;;;;5.80;5.27;;;10.80;99.90;;;;;;5091856;28;20610;-91
2020/12/17 10:41:40;;;;;;;5.67;5.17;;;10.50;99.90;;;;;;5080609;28;20653;-93
2020/12/17 10:44:07;;;;;;;4.27;3.87;;;10.20;99.90;;;;;;5089353;28;20674;-92
2020/12/17 10:46:47;;;;;;;4.70;4.23;;;10.00;99.90;;;;;;5095370;28;20608;-92
2020/12/17 10:49:13;;;;;;;5.10;4.60;;;9.70;99.90;;;;;;5093832;28;20635;-89
2020/12/17 10:51:41;;;;;;;5.20;4.70;;;9.70;99.90;;;;;;5087049;28;20657;-91
2020/12/17 10:54:07;;;;;;;5.10;4.70;;;9.70;99.90;;;;;;5090674;28;21168;-90
2020/12/17 10:56:35;;;;;;;4.77;4.40;;;9.70;99.90;;;;;;5092744;27;20733;-90
2020/12/17 10:59:02;;;;;;;5.03;4.63;;;9.50;99.90;;;;;;5094222;28;20637;-91
2020/12/17 11:01:29;;;;;;;8.67;4.47;;;9.90;99.90;;;;;;5093052;28;20814;-91
2020/12/17 11:03:56;;;;;;;6.73;5.13;;;10.00;99.90;;;;;;5096438;28;20749;-91
2020/12/17 11:06:23;;;;;;;5.60;4.27;;;10.90;99.90;;;;;;5095710;28;21173;-91
2020/12/17 11:08:50;;;;;;;5.03;4.50;;;11.50;99.90;;;;;;5089289;28;20645;-91
2020/12/17 11:11:18;;;;;;;5.20;4.70;;;12.00;99.90;;;;;;5088558;28;20640;-91
2020/12/17 11:13:44;;;;;;;5.10;4.63;;;12.30;99.90;;;;;;5088204;28;20611;-91
2020/12/17 11:16:11;;;;;;;4.40;3.97;;;12.50;99.90;;;;;;5086383;28;20638;-92
2020/12/17 11:18:39;;;;;;;7.83;4.10;;;12.00;99.90;;;;;;5086750;28;20632;-91
2020/12/17 11:21:07;;;;;;;4.33;3.93;;;11.50;99.90;;;;;;5088818;28;20991;-91
2020/12/17 11:23:35;;;;;;;5.87;4.17;;;11.30;99.90;;;;;;5087585;28;20680;-91
2020/12/17 11:26:02;;;;;;;5.30;4.40;;;11.00;99.90;;;;;;5089963;28;20737;-91
2020/12/17 11:28:29;;;;;;;7.63;5.53;;;10.80;99.90;;;;;;5091935;28;20624;-91
2020/12/17 11:30:55;;;;;;;5.27;4.80;;;10.70;99.90;;;;;;5088788;28;20677;-92
2020/12/17 11:33:22;;;;;;;4.80;4.40;;;10.70;99.90;;;;;;5094522;28;20637;-92
2020/12/17 11:35:48;;;;;;;5.60;4.50;;;10.70;99.90;;;;;;5091541;28;20627;-92
2020/12/17 11:38:18;;;;;;;5.20;4.70;;;10.50;99.90;;;;;;5098191;28;20619;-92
2020/12/17 11:40:44;;;;;;;8.03;4.57;;;10.50;99.90;;;;;;5089875;28;21283;-92
2020/12/17 11:43:13;;;;;;;6.43;4.30;;;10.40;99.90;;;;;;5088259;28;20655;-91
2020/12/17 11:45:40;;;;;;;5.30;4.80;;;10.30;99.90;;;;;;5090811;28;20661;-93
2020/12/17 11:48:06;;;;;;;4.03;3.73;;;10.30;99.90;;;;;;5098698;28;20618;-92
2020/12/17 11:50:33;;;;;;;4.90;4.50;;;10.20;99.90;;;;;;5086796;28;21163;-92
2020/12/17 11:52:59;;;;;;;4.53;4.07;;;10.10;99.90;;;;;;5094318;28;20637;-92
2020/12/17 11:55:26;;;;;;;4.70;4.30;;;10.00;99.90;;;;;;5087799;28;20666;-92
2020/12/17 11:57:53;;;;;;;5.43;4.10;;;10.20;99.90;;;;;;5084508;28;20969;-92
2020/12/17 12:00:19;;;;;;;4.77;4.37;;;10.30;99.90;;;;;;5091951;28;21260;-93
2020/12/17 12:02:49;;;;;;;6.37;4.17;;;10.50;99.90;;;;;;5087695;28;20662;-93
2020/12/17 12:05:17;;;;;;;5.20;3.83;;;10.30;99.90;;;;;;5084430;28;20802;-89
2020/12/17 12:07:43;;;;;;;6.10;3.47;;;10.40;99.90;;;;;;5096306;28;20659;-91
2020/12/17 12:10:10;;;;;;;4.30;3.90;;;10.60;99.90;;;;;;5094095;28;20622;-90
2020/12/17 12:12:37;;;;;;;3.80;3.50;;;10.60;99.90;;;;;;5087926;28;20646;-90
2020/12/17 12:15:03;;;;;;;4.53;4.10;;;10.90;99.90;;;;;;5093878;28;20615;-90
2020/12/17 12:17:30;;;;;;;4.17;3.77;;;10.80;99.90;;;;;;5097629;28;20616;-90
2020/12/17 12:19:58;;;;;;;4.80;4.40;;;10.80;99.90;;;;;;5107324;28;20621;-90
2020/12/17 12:22:24;;;;;;;4.60;4.10;;;10.70;99.90;;;;;;5091423;28;20726;-90
2020/12/17 12:24:51;;;;;;;3.73;3.43;;;10.70;99.90;;;;;;5080690;28;21198;-90
2020/12/17 12:27:18;;;;;;;3.83;3.43;;;10.70;99.90;;;;;;5088102;28;20639;-89
2020/12/17 12:29:46;;;;;;;5.50;4.40;;;10.70;99.90;;;;;;5092739;28;20639;-89
2020/12/17 12:32:14;;;;;;;3.97;3.67;;;10.60;99.90;;;;;;5093895;28;20702;-89
2020/12/17 12:34:40;;;;;;;4.90;3.67;;;10.60;99.90;;;;;;5097570;28;20628;-89
2020/12/17 12:37:09;;;;;;;7.83;4.33;;;10.50;99.90;;;;;;5088984;28;20611;-90
2020/12/17 12:39:36;;;;;;;4.67;4.00;;;10.50;99.90;;;;;;5088636;28;20681;-88
2020/12/17 12:42:04;;;;;;;5.80;4.57;;;10.60;99.90;;;;;;5090985;28;21210;-87
2020/12/17 12:44:30;;;;;;;5.00;4.40;;;10.60;99.90;;;;;;5096381;28;20661;-88
2020/12/17 12:46:58;;;;;;;5.30;3.97;;;10.70;99.90;;;;;;5088126;28;20665;-88
2020/12/17 12:49:25;;;;;;;4.40;3.83;;;10.70;99.90;;;;;;5090894;28;21054;-89
2020/12/17 12:51:51;;;;;;;6.77;5.50;;;10.80;99.90;;;;;;5087501;28;20671;-88
2020/12/17 12:54:17;;;;;;;8.53;5.20;;;10.80;99.90;;;;;;5084359;28;20636;-88
2020/12/17 12:56:45;;;;;;;7.37;5.20;;;10.80;99.90;;;;;;5082486;28;20650;-89
2020/12/17 12:59:11;;;;;;;10.90;6.23;;;10.80;99.90;;;;;;5080180;28;20616;-89
2020/12/17 13:01:38;;;;;;;6.17;5.50;;;10.70;99.90;;;;;;5081716;28;20649;-90
2020/12/17 13:04:06;;;;;;;5.73;5.10;;;10.70;99.90;;;;;;5081193;28;20664;-89
2020/12/17 13:06:33;;;;;;;7.33;5.70;;;10.70;99.90;;;;;;5091943;28;21211;-89